sensor_id;sensor_type;location;lat;lon;timestamp;P1;durP1;ratioP1;P2;durP2;ratioP2
30080;SDS011;16902;50.816;12.828;2023-11-19T00:00:33;6.45;;;6.25;;
30080;SDS011;16902;50.816;12.828;2023-11-19T00:05:34;6.22;;;6.03;;
30080;SDS011;16902;50.816;12.828;2023-11-19T00:10:36;5.97;;;5.78;;
30080;SDS011;16902;50.816;12.828;2023-11-19T00:15:38;5.97;;;5.78;;
30080;SDS011;16902;50.816;12.828;2023-11-19T00:20:40;5.70;;;5.50;;
30080;SDS011;16902;50.816;12.828;2023-11-19T00:25:41;5.80;;;5.60;;
30080;SDS011;16902;50.816;12.828;2023-11-19T00:30:43;6.03;;;5.82;;
30080;SDS011;16902;50.816;12.828;2023-11-19T00:35:45;6.00;;;5.80;;
30080;SDS011;16902;50.816;12.828;2023-11-19T00:40:46;5.85;;;5.65;;
30080;SDS011;16902;50.816;12.828;2023-11-19T00:45:48;6.35;;;6.15;;
30080;SDS011;16902;50.816;12.828;2023-11-19T00:50:52;5.80;;;5.60;;
30080;SDS011;16902;50.816;12.828;2023-11-19T00:55:54;6.10;;;5.90;;
30080;SDS011;16902;50.816;12.828;2023-11-19T01:00:55;6.25;;;6.05;;
30080;SDS011;16902;50.816;12.828;2023-11-19T01:05:58;5.97;;;5.78;;
30080;SDS011;16902;50.816;12.828;2023-11-19T01:11:02;5.40;;;5.30;;
30080;SDS011;16902;50.816;12.828;2023-11-19T01:16:05;5.90;;;5.70;;
30080;SDS011;16902;50.816;12.828;2023-11-19T01:21:08;5.50;;;5.32;;
30080;SDS011;16902;50.816;12.828;2023-11-19T01:26:10;6.30;;;6.10;;
30080;SDS011;16902;50.816;12.828;2023-11-19T01:31:17;5.90;;;5.70;;
30080;SDS011;16902;50.816;12.828;2023-11-19T01:36:19;5.78;;;5.57;;
30080;SDS011;16902;50.816;12.828;2023-11-19T01:41:20;5.80;;;5.60;;
30080;SDS011;16902;50.816;12.828;2023-11-19T01:46:22;6.00;;;5.80;;
30080;SDS011;16902;50.816;12.828;2023-11-19T01:51:24;5.70;;;5.50;;
30080;SDS011;16902;50.816;12.828;2023-11-19T01:56:26;6.20;;;6.00;;
30080;SDS011;16902;50.816;12.828;2023-11-19T02:01:28;6.00;;;5.80;;
30080;SDS011;16902;50.816;12.828;2023-11-19T02:06:31;5.20;;;5.10;;
30080;SDS011;16902;50.816;12.828;2023-11-19T02:11:35;5.28;;;5.18;;
30080;SDS011;16902;50.816;12.828;2023-11-19T02:16:38;4.90;;;4.80;;
30080;SDS011;16902;50.816;12.828;2023-11-19T02:21:40;5.00;;;4.90;;
30080;SDS011;16902;50.816;12.828;2023-11-19T02:26:45;5.30;;;5.20;;
30080;SDS011;16902;50.816;12.828;2023-11-19T02:31:53;5.22;;;5.03;;
30080;SDS011;16902;50.816;12.828;2023-11-19T02:36:56;5.20;;;5.10;;
30080;SDS011;16902;50.816;12.828;2023-11-19T02:41:58;5.53;;;5.38;;
30080;SDS011;16902;50.816;12.828;2023-11-19T02:47:01;5.28;;;5.07;;
30080;SDS011;16902;50.816;12.828;2023-11-19T02:52:05;5.05;;;4.95;;
30080;SDS011;16902;50.816;12.828;2023-11-19T02:57:08;4.88;;;4.78;;
30080;SDS011;16902;50.816;12.828;2023-11-19T03:02:22;4.20;;;4.10;;
30080;SDS011;16902;50.816;12.828;2023-11-19T03:07:25;4.30;;;4.20;;
30080;SDS011;16902;50.816;12.828;2023-11-19T03:12:28;4.70;;;4.60;;
30080;SDS011;16902;50.816;12.828;2023-11-19T03:17:30;4.50;;;4.40;;
30080;SDS011;16902;50.816;12.828;2023-11-19T03:22:31;4.20;;;4.10;;
30080;SDS011;16902;50.816;12.828;2023-11-19T03:27:38;4.70;;;4.60;;
30080;SDS011;16902;50.816;12.828;2023-11-19T03:32:40;4.30;;;4.20;;
30080;SDS011;16902;50.816;12.828;2023-11-19T03:37:42;4.32;;;4.22;;
30080;SDS011;16902;50.816;12.828;2023-11-19T03:42:46;4.10;;;4.00;;
30080;SDS011;16902;50.816;12.828;2023-11-19T03:47:48;4.60;;;4.50;;
30080;SDS011;16902;50.816;12.828;2023-11-19T03:52:51;4.20;;;4.10;;
30080;SDS011;16902;50.816;12.828;2023-11-19T03:57:54;3.85;;;3.75;;
30080;SDS011;16902;50.816;12.828;2023-11-19T04:02:55;4.60;;;4.50;;
30080;SDS011;16902;50.816;12.828;2023-11-19T04:07:57;4.40;;;4.30;;
30080;SDS011;16902;50.816;12.828;2023-11-19T04:12:59;4.45;;;4.35;;
30080;SDS011;16902;50.816;12.828;2023-11-19T04:18:01;4.50;;;4.40;;
30080;SDS011;16902;50.816;12.828;2023-11-19T04:23:02;4.65;;;4.47;;
30080;SDS011;16902;50.816;12.828;2023-11-19T04:28:04;4.38;;;4.28;;
30080;SDS011;16902;50.816;12.828;2023-11-19T04:33:06;4.70;;;4.60;;
30080;SDS011;16902;50.816;12.828;2023-11-19T04:38:07;4.40;;;4.30;;
30080;SDS011;16902;50.816;12.828;2023-11-19T04:43:09;4.32;;;4.22;;
30080;SDS011;16902;50.816;12.828;2023-11-19T04:48:11;3.97;;;3.88;;
30080;SDS011;16902;50.816;12.828;2023-11-19T04:53:13;4.00;;;3.90;;
30080;SDS011;16902;50.816;12.828;2023-11-19T04:58:17;3.42;;;3.33;;
30080;SDS011;16902;50.816;12.828;2023-11-19T05:03:18;3.40;;;3.30;;
30080;SDS011;16902;50.816;12.828;2023-11-19T05:08:20;3.33;;;3.22;;
30080;SDS011;16902;50.816;12.828;2023-11-19T05:13:22;3.13;;;3.03;;
30080;SDS011;16902;50.816;12.828;2023-11-19T05:18:23;3.00;;;2.90;;
30080;SDS011;16902;50.816;12.828;2023-11-19T05:23:25;3.50;;;3.40;;
30080;SDS011;16902;50.816;12.828;2023-11-19T05:28:27;3.38;;;3.28;;
30080;SDS011;16902;50.816;12.828;2023-11-19T05:33:29;3.50;;;3.40;;
30080;SDS011;16902;50.816;12.828;2023-11-19T05:38:30;3.78;;;3.67;;
30080;SDS011;16902;50.816;12.828;2023-11-19T05:43:32;3.28;;;3.17;;
30080;SDS011;16902;50.816;12.828;2023-11-19T05:48:34;3.63;;;3.53;;
30080;SDS011;16902;50.816;12.828;2023-11-19T05:53:36;3.47;;;3.38;;
30080;SDS011;16902;50.816;12.828;2023-11-19T05:58:38;3.35;;;3.25;;
30080;SDS011;16902;50.816;12.828;2023-11-19T06:03:41;3.30;;;3.20;;
30080;SDS011;16902;50.816;12.828;2023-11-19T06:08:45;3.40;;;3.30;;
30080;SDS011;16902;50.816;12.828;2023-11-19T06:13:47;3.38;;;3.28;;
30080;SDS011;16902;50.816;12.828;2023-11-19T06:18:49;3.40;;;3.30;;
30080;SDS011;16902;50.816;12.828;2023-11-19T06:23:51;3.20;;;3.10;;
30080;SDS011;16902;50.816;12.828;2023-11-19T06:28:54;3.55;;;3.45;;
30080;SDS011;16902;50.816;12.828;2023-11-19T06:33:56;3.47;;;3.38;;
30080;SDS011;16902;50.816;12.828;2023-11-19T06:38:58;3.20;;;3.10;;
30080;SDS011;16902;50.816;12.828;2023-11-19T06:43:59;3.25;;;3.15;;
30080;SDS011;16902;50.816;12.828;2023-11-19T06:49:01;3.00;;;2.90;;
30080;SDS011;16902;50.816;12.828;2023-11-19T06:54:03;3.80;;;3.70;;
30080;SDS011;16902;50.816;12.828;2023-11-19T06:59:05;3.67;;;3.58;;
30080;SDS011;16902;50.816;12.828;2023-11-19T07:04:07;3.85;;;3.75;;
30080;SDS011;16902;50.816;12.828;2023-11-19T07:09:11;3.30;;;3.20;;
30080;SDS011;16902;50.816;12.828;2023-11-19T07:14:15;3.33;;;3.22;;
30080;SDS011;16902;50.816;12.828;2023-11-19T07:19:17;3.78;;;3.67;;
30080;SDS011;16902;50.816;12.828;2023-11-19T07:24:19;3.85;;;3.75;;
30080;SDS011;16902;50.816;12.828;2023-11-19T07:29:21;3.80;;;3.70;;
30080;SDS011;16902;50.816;12.828;2023-11-19T07:34:28;4.07;;;3.97;;
30080;SDS011;16902;50.816;12.828;2023-11-19T07:39:30;4.05;;;3.85;;
30080;SDS011;16902;50.816;12.828;2023-11-19T07:44:32;3.92;;;3.83;;
30080;SDS011;16902;50.816;12.828;2023-11-19T07:49:34;3.58;;;3.47;;
30080;SDS011;16902;50.816;12.828;2023-11-19T07:54:36;4.13;;;4.03;;
30080;SDS011;16902;50.816;12.828;2023-11-19T07:59:38;3.70;;;3.60;;
30080;SDS011;16902;50.816;12.828;2023-11-19T08:04:41;3.53;;;3.42;;
30080;SDS011;16902;50.816;12.828;2023-11-19T08:09:46;3.80;;;3.70;;
30080;SDS011;16902;50.816;12.828;2023-11-19T08:14:48;3.67;;;3.58;;
30080;SDS011;16902;50.816;12.828;2023-11-19T08:19:50;3.92;;;3.83;;
30080;SDS011;16902;50.816;12.828;2023-11-19T08:24:53;4.40;;;4.20;;
30080;SDS011;16902;50.816;12.828;2023-11-19T08:29:55;3.97;;;3.88;;
30080;SDS011;16902;50.816;12.828;2023-11-19T08:35:00;4.88;;;4.68;;
30080;SDS011;16902;50.816;12.828;2023-11-19T08:40:02;4.15;;;4.05;;
30080;SDS011;16902;50.816;12.828;2023-11-19T08:45:06;4.40;;;4.30;;
30080;SDS011;16902;50.816;12.828;2023-11-19T08:50:11;4.85;;;4.75;;
30080;SDS011;16902;50.816;12.828;2023-11-19T08:55:13;4.40;;;4.30;;
30080;SDS011;16902;50.816;12.828;2023-11-19T09:00:15;4.15;;;4.05;;
30080;SDS011;16902;50.816;12.828;2023-11-19T09:05:18;3.88;;;3.78;;
30080;SDS011;16902;50.816;12.828;2023-11-19T09:10:19;4.50;;;4.40;;
30080;SDS011;16902;50.816;12.828;2023-11-19T09:15:21;4.45;;;4.32;;
30080;SDS011;16902;50.816;12.828;2023-11-19T09:20:23;4.45;;;4.35;;
30080;SDS011;16902;50.816;12.828;2023-11-19T09:25:25;4.85;;;4.65;;
30080;SDS011;16902;50.816;12.828;2023-11-19T09:30:27;5.25;;;5.05;;
30080;SDS011;16902;50.816;12.828;2023-11-19T09:35:29;5.40;;;5.20;;
30080;SDS011;16902;50.816;12.828;2023-11-19T09:40:31;5.43;;;5.22;;
30080;SDS011;16902;50.816;12.828;2023-11-19T09:45:45;4.97;;;4.88;;
30080;SDS011;16902;50.816;12.828;2023-11-19T09:50:51;4.72;;;4.63;;
30080;SDS011;16902;50.816;12.828;2023-11-19T09:55:54;4.72;;;4.53;;
30080;SDS011;16902;50.816;12.828;2023-11-19T10:00:57;4.30;;;4.20;;
30080;SDS011;16902;50.816;12.828;2023-11-19T10:06:07;3.72;;;3.63;;
30080;SDS011;16902;50.816;12.828;2023-11-19T10:11:09;3.50;;;3.40;;
30080;SDS011;16902;50.816;12.828;2023-11-19T10:16:15;3.55;;;3.45;;
30080;SDS011;16902;50.816;12.828;2023-11-19T10:21:19;3.78;;;3.67;;
30080;SDS011;16902;50.816;12.828;2023-11-19T10:26:21;4.05;;;3.85;;
30080;SDS011;16902;50.816;12.828;2023-11-19T10:31:24;3.70;;;3.60;;
30080;SDS011;16902;50.816;12.828;2023-11-19T10:36:39;4.28;;;4.07;;
30080;SDS011;16902;50.816;12.828;2023-11-19T10:41:45;5.63;;;5.32;;
30080;SDS011;16902;50.816;12.828;2023-11-19T10:46:48;5.30;;;5.05;;
30080;SDS011;16902;50.816;12.828;2023-11-19T10:51:50;5.07;;;4.88;;
30080;SDS011;16902;50.816;12.828;2023-11-19T10:56:55;5.53;;;5.32;;
30080;SDS011;16902;50.816;12.828;2023-11-19T11:02:03;5.85;;;5.65;;
30080;SDS011;16902;50.816;12.828;2023-11-19T11:07:08;6.55;;;6.30;;
30080;SDS011;16902;50.816;12.828;2023-11-19T11:12:11;7.20;;;7.00;;
30080;SDS011;16902;50.816;12.828;2023-11-19T11:17:13;7.63;;;7.43;;
30080;SDS011;16902;50.816;12.828;2023-11-19T11:22:19;7.95;;;7.65;;
30080;SDS011;16902;50.816;12.828;2023-11-19T11:27:43;8.27;;;7.90;;
30080;SDS011;16902;50.816;12.828;2023-11-19T11:33:06;8.93;;;8.63;;
30080;SDS011;16902;50.816;12.828;2023-11-19T11:38:24;9.65;;;9.05;;
30080;SDS011;16902;50.816;12.828;2023-11-19T11:43:43;9.88;;;9.45;;
30080;SDS011;16902;50.816;12.828;2023-11-19T11:48:46;9.00;;;8.70;;
30080;SDS011;16902;50.816;12.828;2023-11-19T11:53:51;9.15;;;8.68;;
30080;SDS011;16902;50.816;12.828;2023-11-19T11:58:53;10.23;;;9.82;;
30080;SDS011;16902;50.816;12.828;2023-11-19T12:03:56;6.88;;;6.60;;
30080;SDS011;16902;50.816;12.828;2023-11-19T12:08:59;5.93;;;5.72;;
30080;SDS011;16902;50.816;12.828;2023-11-19T12:14:02;6.47;;;6.18;;
30080;SDS011;16902;50.816;12.828;2023-11-19T12:19:04;5.82;;;5.53;;
30080;SDS011;16902;50.816;12.828;2023-11-19T12:24:07;5.00;;;4.78;;
30080;SDS011;16902;50.816;12.828;2023-11-19T12:29:10;5.60;;;5.40;;
30080;SDS011;16902;50.816;12.828;2023-11-19T12:34:12;5.95;;;5.55;;
30080;SDS011;16902;50.816;12.828;2023-11-19T12:39:15;5.38;;;4.97;;
30080;SDS011;16902;50.816;12.828;2023-11-19T12:44:17;5.68;;;5.47;;
30080;SDS011;16902;50.816;12.828;2023-11-19T12:49:19;6.13;;;5.93;;
30080;SDS011;16902;50.816;12.828;2023-11-19T12:54:31;6.97;;;6.68;;
30080;SDS011;16902;50.816;12.828;2023-11-19T12:59:34;7.78;;;7.47;;
30080;SDS011;16902;50.816;12.828;2023-11-19T13:04:36;8.40;;;8.10;;
30080;SDS011;16902;50.816;12.828;2023-11-19T13:09:38;8.07;;;7.78;;
30080;SDS011;16902;50.816;12.828;2023-11-19T13:14:40;7.68;;;7.38;;
30080;SDS011;16902;50.816;12.828;2023-11-19T13:19:46;8.55;;;8.13;;
30080;SDS011;16902;50.816;12.828;2023-11-19T13:24:49;8.18;;;7.78;;
30080;SDS011;16902;50.816;12.828;2023-11-19T13:29:51;9.20;;;8.80;;
30080;SDS011;16902;50.816;12.828;2023-11-19T13:34:53;8.68;;;8.38;;
30080;SDS011;16902;50.816;12.828;2023-11-19T13:39:55;9.98;;;9.45;;
30080;SDS011;16902;50.816;12.828;2023-11-19T13:44:57;9.55;;;9.25;;
30080;SDS011;16902;50.816;12.828;2023-11-19T13:49:59;8.68;;;8.38;;
30080;SDS011;16902;50.816;12.828;2023-11-19T13:55:01;9.00;;;8.70;;
30080;SDS011;16902;50.816;12.828;2023-11-19T14:00:03;9.25;;;8.95;;
30080;SDS011;16902;50.816;12.828;2023-11-19T14:05:32;9.68;;;9.27;;
30080;SDS011;16902;50.816;12.828;2023-11-19T14:10:39;9.82;;;9.43;;
30080;SDS011;16902;50.816;12.828;2023-11-19T14:15:44;9.60;;;9.20;;
30080;SDS011;16902;50.816;12.828;2023-11-19T14:20:50;9.15;;;8.85;;
30080;SDS011;16902;50.816;12.828;2023-11-19T14:25:52;9.68;;;9.27;;
30080;SDS011;16902;50.816;12.828;2023-11-19T14:30:54;10.23;;;9.82;;
30080;SDS011;16902;50.816;12.828;2023-11-19T14:35:58;9.75;;;9.45;;
30080;SDS011;16902;50.816;12.828;2023-11-19T14:41:00;9.50;;;9.15;;
30080;SDS011;16902;50.816;12.828;2023-11-19T14:46:02;9.23;;;8.88;;
30080;SDS011;16902;50.816;12.828;2023-11-19T14:51:05;9.75;;;9.35;;
30080;SDS011;16902;50.816;12.828;2023-11-19T14:56:10;8.88;;;8.57;;
30080;SDS011;16902;50.816;12.828;2023-11-19T15:01:12;9.40;;;9.02;;
30080;SDS011;16902;50.816;12.828;2023-11-19T15:06:15;9.27;;;8.98;;
30080;SDS011;16902;50.816;12.828;2023-11-19T15:11:17;9.30;;;9.00;;
30080;SDS011;16902;50.816;12.828;2023-11-19T15:16:21;8.80;;;8.40;;
30080;SDS011;16902;50.816;12.828;2023-11-19T15:21:32;8.65;;;8.30;;
30080;SDS011;16902;50.816;12.828;2023-11-19T15:26:34;8.68;;;8.38;;
30080;SDS011;16902;50.816;12.828;2023-11-19T15:31:39;8.65;;;8.35;;
30080;SDS011;16902;50.816;12.828;2023-11-19T15:36:41;8.52;;;8.23;;
30080;SDS011;16902;50.816;12.828;2023-11-19T15:41:42;10.80;;;9.90;;
30080;SDS011;16902;50.816;12.828;2023-11-19T15:46:45;8.48;;;8.07;;
30080;SDS011;16902;50.816;12.828;2023-11-19T15:51:46;8.95;;;8.55;;
30080;SDS011;16902;50.816;12.828;2023-11-19T15:56:48;8.75;;;8.45;;
30080;SDS011;16902;50.816;12.828;2023-11-19T16:01:50;9.48;;;9.07;;
30080;SDS011;16902;50.816;12.828;2023-11-19T16:06:52;9.70;;;9.30;;
30080;SDS011;16902;50.816;12.828;2023-11-19T16:11:53;9.73;;;9.32;;
30080;SDS011;16902;50.816;12.828;2023-11-19T16:16:57;10.18;;;9.77;;
30080;SDS011;16902;50.816;12.828;2023-11-19T16:21:59;10.02;;;9.05;;
30080;SDS011;16902;50.816;12.828;2023-11-19T16:27:10;10.50;;;9.80;;
30080;SDS011;16902;50.816;12.828;2023-11-19T16:32:16;10.30;;;9.90;;
30080;SDS011;16902;50.816;12.828;2023-11-19T16:37:18;11.25;;;10.48;;
30080;SDS011;16902;50.816;12.828;2023-11-19T16:42:22;11.93;;;11.13;;
30080;SDS011;16902;50.816;12.828;2023-11-19T16:47:24;10.35;;;9.95;;
30080;SDS011;16902;50.816;12.828;2023-11-19T16:52:25;9.50;;;9.05;;
30080;SDS011;16902;50.816;12.828;2023-11-19T16:57:27;9.20;;;8.88;;
30080;SDS011;16902;50.816;12.828;2023-11-19T17:02:29;10.18;;;9.45;;
30080;SDS011;16902;50.816;12.828;2023-11-19T17:07:31;10.43;;;9.93;;
30080;SDS011;16902;50.816;12.828;2023-11-19T17:12:33;10.60;;;10.10;;
30080;SDS011;16902;50.816;12.828;2023-11-19T17:17:35;10.55;;;9.73;;
30080;SDS011;16902;50.816;12.828;2023-11-19T17:22:38;10.55;;;10.15;;
30080;SDS011;16902;50.816;12.828;2023-11-19T17:27:41;10.77;;;10.38;;
30080;SDS011;16902;50.816;12.828;2023-11-19T17:32:44;11.75;;;11.05;;
30080;SDS011;16902;50.816;12.828;2023-11-19T17:37:47;11.65;;;11.15;;
30080;SDS011;16902;50.816;12.828;2023-11-19T17:42:49;11.05;;;10.55;;
30080;SDS011;16902;50.816;12.828;2023-11-19T17:47:56;11.38;;;10.98;;
30080;SDS011;16902;50.816;12.828;2023-11-19T17:52:58;11.77;;;11.27;;
30080;SDS011;16902;50.816;12.828;2023-11-19T17:57:59;11.40;;;10.95;;
30080;SDS011;16902;50.816;12.828;2023-11-19T18:03:01;10.25;;;9.85;;
30080;SDS011;16902;50.816;12.828;2023-11-19T18:08:03;10.88;;;10.38;;
30080;SDS011;16902;50.816;12.828;2023-11-19T18:13:06;10.93;;;10.50;;
30080;SDS011;16902;50.816;12.828;2023-11-19T18:18:08;10.07;;;9.68;;
30080;SDS011;16902;50.816;12.828;2023-11-19T18:23:10;11.18;;;10.63;;
30080;SDS011;16902;50.816;12.828;2023-11-19T18:28:12;11.55;;;10.45;;
30080;SDS011;16902;50.816;12.828;2023-11-19T18:33:14;11.15;;;10.50;;
30080;SDS011;16902;50.816;12.828;2023-11-19T18:38:15;10.45;;;10.05;;
30080;SDS011;16902;50.816;12.828;2023-11-19T18:43:17;10.60;;;10.20;;
30080;SDS011;16902;50.816;12.828;2023-11-19T18:48:19;10.60;;;10.20;;
30080;SDS011;16902;50.816;12.828;2023-11-19T18:53:21;10.05;;;9.65;;
30080;SDS011;16902;50.816;12.828;2023-11-19T18:58:23;10.43;;;9.73;;
30080;SDS011;16902;50.816;12.828;2023-11-19T19:03:25;9.73;;;9.35;;
30080;SDS011;16902;50.816;12.828;2023-11-19T19:08:28;9.88;;;9.48;;
30080;SDS011;16902;50.816;12.828;2023-11-19T19:13:30;8.93;;;8.55;;
30080;SDS011;16902;50.816;12.828;2023-11-19T19:18:31;9.50;;;9.10;;
30080;SDS011;16902;50.816;12.828;2023-11-19T19:23:33;9.07;;;8.57;;
30080;SDS011;16902;50.816;12.828;2023-11-19T19:28:35;9.93;;;9.43;;
30080;SDS011;16902;50.816;12.828;2023-11-19T19:33:39;9.90;;;9.35;;
30080;SDS011;16902;50.816;12.828;2023-11-19T19:38:41;9.85;;;9.45;;
30080;SDS011;16902;50.816;12.828;2023-11-19T19:43:43;9.27;;;8.93;;
30080;SDS011;16902;50.816;12.828;2023-11-19T19:48:45;9.38;;;8.98;;
30080;SDS011;16902;50.816;12.828;2023-11-19T19:53:47;9.88;;;9.38;;
30080;SDS011;16902;50.816;12.828;2023-11-19T19:58:49;9.52;;;9.15;;
30080;SDS011;16902;50.816;12.828;2023-11-19T20:03:51;9.55;;;9.15;;
30080;SDS011;16902;50.816;12.828;2023-11-19T20:08:53;9.37;;;9.03;;
30080;SDS011;16902;50.816;12.828;2023-11-19T20:13:55;9.02;;;8.73;;
30080;SDS011;16902;50.816;12.828;2023-11-19T20:18:57;8.88;;;8.50;;
30080;SDS011;16902;50.816;12.828;2023-11-19T20:23:59;8.40;;;8.10;;
30080;SDS011;16902;50.816;12.828;2023-11-19T20:29:01;8.05;;;7.75;;
30080;SDS011;16902;50.816;12.828;2023-11-19T20:34:07;8.50;;;8.20;;
30080;SDS011;16902;50.816;12.828;2023-11-19T20:39:09;8.70;;;8.10;;
30080;SDS011;16902;50.816;12.828;2023-11-19T20:44:14;8.50;;;8.20;;
30080;SDS011;16902;50.816;12.828;2023-11-19T20:49:16;8.25;;;7.95;;
30080;SDS011;16902;50.816;12.828;2023-11-19T20:54:18;8.48;;;8.18;;
30080;SDS011;16902;50.816;12.828;2023-11-19T20:59:40;8.73;;;8.43;;
30080;SDS011;16902;50.816;12.828;2023-11-19T21:04:42;8.70;;;8.40;;
30080;SDS011;16902;50.816;12.828;2023-11-19T21:09:44;9.45;;;9.05;;
30080;SDS011;16902;50.816;12.828;2023-11-19T21:14:46;8.88;;;8.57;;
30080;SDS011;16902;50.816;12.828;2023-11-19T21:19:48;8.68;;;8.13;;
30080;SDS011;16902;50.816;12.828;2023-11-19T21:24:50;9.63;;;9.23;;
30080;SDS011;16902;50.816;12.828;2023-11-19T21:29:53;9.35;;;8.95;;
30080;SDS011;16902;50.816;12.828;2023-11-19T21:34:56;8.40;;;8.10;;
30080;SDS011;16902;50.816;12.828;2023-11-19T21:39:58;8.77;;;8.48;;
30080;SDS011;16902;50.816;12.828;2023-11-19T21:45:02;8.52;;;8.23;;
30080;SDS011;16902;50.816;12.828;2023-11-19T21:50:05;8.60;;;8.30;;
30080;SDS011;16902;50.816;12.828;2023-11-19T21:55:08;9.00;;;8.57;;
30080;SDS011;16902;50.816;12.828;2023-11-19T22:00:12;8.77;;;8.48;;
30080;SDS011;16902;50.816;12.828;2023-11-19T22:05:17;8.90;;;8.60;;
30080;SDS011;16902;50.816;12.828;2023-11-19T22:10:23;9.00;;;8.60;;
30080;SDS011;16902;50.816;12.828;2023-11-19T22:15:25;9.05;;;8.75;;
30080;SDS011;16902;50.816;12.828;2023-11-19T22:20:27;8.45;;;8.13;;
30080;SDS011;16902;50.816;12.828;2023-11-19T22:25:36;8.77;;;8.48;;
30080;SDS011;16902;50.816;12.828;2023-11-19T22:30:38;9.15;;;8.85;;
30080;SDS011;16902;50.816;12.828;2023-11-19T22:35:40;9.60;;;9.10;;
30080;SDS011;16902;50.816;12.828;2023-11-19T22:40:42;9.23;;;8.93;;
30080;SDS011;16902;50.816;12.828;2023-11-19T22:45:44;9.20;;;8.80;;
30080;SDS011;16902;50.816;12.828;2023-11-19T22:50:46;8.82;;;8.52;;
30080;SDS011;16902;50.816;12.828;2023-11-19T22:55:49;8.85;;;8.45;;
30080;SDS011;16902;50.816;12.828;2023-11-19T23:00:51;8.10;;;7.80;;
30080;SDS011;16902;50.816;12.828;2023-11-19T23:05:53;8.15;;;7.90;;
30080;SDS011;16902;50.816;12.828;2023-11-19T23:10:54;7.80;;;7.55;;
30080;SDS011;16902;50.816;12.828;2023-11-19T23:15:57;7.80;;;7.50;;
30080;SDS011;16902;50.816;12.828;2023-11-19T23:21:02;6.97;;;6.70;;
30080;SDS011;16902;50.816;12.828;2023-11-19T23:26:12;6.80;;;6.28;;
30080;SDS011;16902;50.816;12.828;2023-11-19T23:31:18;5.78;;;5.57;;
30080;SDS011;16902;50.816;12.828;2023-11-19T23:36:20;6.15;;;5.90;;
30080;SDS011;16902;50.816;12.828;2023-11-19T23:41:23;5.60;;;5.40;;
30080;SDS011;16902;50.816;12.828;2023-11-19T23:46:25;5.97;;;5.68;;
30080;SDS011;16902;50.816;12.828;2023-11-19T23:51:31;5.40;;;5.15;;
30080;SDS011;16902;50.816;12.828;2023-11-19T23:56:33;5.25;;;5.05;;
